sensor_id;sensor_type;location;lat;lon;timestamp;P1;durP1;ratioP1;P2;durP2;ratioP2
10442;SDS011;5269;51.146;16.986;2022-07-15T00:01:34;3.15;;;2.40;;
10442;SDS011;5269;51.146;16.986;2022-07-15T00:04:21;3.60;;;2.25;;
10442;SDS011;5269;51.146;16.986;2022-07-15T00:06:52;3.20;;;2.35;;
10442;SDS011;5269;51.146;16.986;2022-07-15T00:09:21;3.13;;;2.47;;
10442;SDS011;5269;51.146;16.986;2022-07-15T00:12:18;4.45;;;2.45;;
10442;SDS011;5269;51.146;16.986;2022-07-15T00:14:47;4.68;;;2.45;;
10442;SDS011;5269;51.146;16.986;2022-07-15T00:17:14;5.50;;;2.65;;
10442;SDS011;5269;51.146;16.986;2022-07-15T00:19:41;5.93;;;2.88;;
10442;SDS011;5269;51.146;16.986;2022-07-15T00:22:10;3.90;;;2.55;;
10442;SDS011;5269;51.146;16.986;2022-07-15T00:24:37;3.50;;;2.60;;
10442;SDS011;5269;51.146;16.986;2022-07-15T00:27:04;5.47;;;2.90;;
10442;SDS011;5269;51.146;16.986;2022-07-15T00:29:31;3.88;;;2.90;;
10442;SDS011;5269;51.146;16.986;2022-07-15T00:31:58;5.00;;;3.08;;
10442;SDS011;5269;51.146;16.986;2022-07-15T00:34:25;6.65;;;3.38;;
10442;SDS011;5269;51.146;16.986;2022-07-15T00:36:52;4.80;;;2.90;;
10442;SDS011;5269;51.146;16.986;2022-07-15T00:39:20;8.32;;;3.47;;
10442;SDS011;5269;51.146;16.986;2022-07-15T00:41:48;2.85;;;2.53;;
10442;SDS011;5269;51.146;16.986;2022-07-15T00:44:15;4.05;;;3.00;;
10442;SDS011;5269;51.146;16.986;2022-07-15T00:46:41;3.42;;;2.85;;
10442;SDS011;5269;51.146;16.986;2022-07-15T00:49:09;3.60;;;2.80;;
10442;SDS011;5269;51.146;16.986;2022-07-15T00:51:37;3.28;;;2.70;;
10442;SDS011;5269;51.146;16.986;2022-07-15T00:54:07;6.13;;;2.42;;
10442;SDS011;5269;51.146;16.986;2022-07-15T00:56:38;4.88;;;2.58;;
10442;SDS011;5269;51.146;16.986;2022-07-15T00:59:08;4.10;;;2.58;;
10442;SDS011;5269;51.146;16.986;2022-07-15T01:01:38;5.32;;;2.88;;
10442;SDS011;5269;51.146;16.986;2022-07-15T01:04:06;5.85;;;3.13;;
10442;SDS011;5269;51.146;16.986;2022-07-15T01:06:33;4.15;;;3.08;;
10442;SDS011;5269;51.146;16.986;2022-07-15T01:09:00;3.85;;;2.75;;
10442;SDS011;5269;51.146;16.986;2022-07-15T01:11:27;5.05;;;2.90;;
10442;SDS011;5269;51.146;16.986;2022-07-15T01:13:57;4.68;;;2.72;;
10442;SDS011;5269;51.146;16.986;2022-07-15T01:16:24;3.20;;;2.60;;
10442;SDS011;5269;51.146;16.986;2022-07-15T01:18:51;5.28;;;2.47;;
10442;SDS011;5269;51.146;16.986;2022-07-15T01:21:20;3.53;;;2.85;;
10442;SDS011;5269;51.146;16.986;2022-07-15T01:23:47;3.80;;;2.70;;
10442;SDS011;5269;51.146;16.986;2022-07-15T01:26:14;6.28;;;3.50;;
10442;SDS011;5269;51.146;16.986;2022-07-15T01:28:42;3.83;;;2.75;;
10442;SDS011;5269;51.146;16.986;2022-07-15T01:31:09;4.40;;;2.42;;
10442;SDS011;5269;51.146;16.986;2022-07-15T01:33:36;4.72;;;2.60;;
10442;SDS011;5269;51.146;16.986;2022-07-15T01:36:04;4.18;;;2.60;;
10442;SDS011;5269;51.146;16.986;2022-07-15T01:38:33;3.47;;;2.45;;
10442;SDS011;5269;51.146;16.986;2022-07-15T01:41:00;4.05;;;2.85;;
10442;SDS011;5269;51.146;16.986;2022-07-15T01:43:28;4.60;;;2.47;;
10442;SDS011;5269;51.146;16.986;2022-07-15T01:45:54;6.00;;;3.10;;
10442;SDS011;5269;51.146;16.986;2022-07-15T01:48:21;5.20;;;2.53;;
10442;SDS011;5269;51.146;16.986;2022-07-15T01:51:08;3.40;;;2.30;;
10442;SDS011;5269;51.146;16.986;2022-07-15T01:53:37;3.60;;;2.13;;
10442;SDS011;5269;51.146;16.986;2022-07-15T01:56:04;2.85;;;1.95;;
10442;SDS011;5269;51.146;16.986;2022-07-15T01:58:32;3.42;;;2.20;;
10442;SDS011;5269;51.146;16.986;2022-07-15T02:00:59;4.25;;;2.00;;
10442;SDS011;5269;51.146;16.986;2022-07-15T02:03:26;5.85;;;2.10;;
10442;SDS011;5269;51.146;16.986;2022-07-15T02:05:53;3.90;;;2.05;;
10442;SDS011;5269;51.146;16.986;2022-07-15T02:08:19;2.78;;;1.92;;
10442;SDS011;5269;51.146;16.986;2022-07-15T02:10:48;2.78;;;2.20;;
10442;SDS011;5269;51.146;16.986;2022-07-15T02:13:15;2.20;;;2.00;;
10442;SDS011;5269;51.146;16.986;2022-07-15T02:15:42;4.88;;;2.10;;
10442;SDS011;5269;51.146;16.986;2022-07-15T02:18:09;2.55;;;1.92;;
10442;SDS011;5269;51.146;16.986;2022-07-15T02:20:36;1.73;;;1.63;;
10442;SDS011;5269;51.146;16.986;2022-07-15T02:23:03;3.63;;;2.00;;
10442;SDS011;5269;51.146;16.986;2022-07-15T02:25:31;2.17;;;1.90;;
10442;SDS011;5269;51.146;16.986;2022-07-15T02:28:01;1.70;;;1.60;;
10442;SDS011;5269;51.146;16.986;2022-07-15T02:30:30;3.90;;;1.85;;
10442;SDS011;5269;51.146;16.986;2022-07-15T02:32:59;2.55;;;1.80;;
10442;SDS011;5269;51.146;16.986;2022-07-15T02:35:26;3.03;;;1.70;;
10442;SDS011;5269;51.146;16.986;2022-07-15T02:37:53;2.15;;;1.90;;
10442;SDS011;5269;51.146;16.986;2022-07-15T02:40:20;5.85;;;1.92;;
10442;SDS011;5269;51.146;16.986;2022-07-15T02:42:48;1.88;;;1.50;;
10442;SDS011;5269;51.146;16.986;2022-07-15T02:45:20;3.38;;;1.60;;
10442;SDS011;5269;51.146;16.986;2022-07-15T02:47:54;3.60;;;1.50;;
10442;SDS011;5269;51.146;16.986;2022-07-15T02:50:26;2.85;;;1.83;;
10442;SDS011;5269;51.146;16.986;2022-07-15T02:52:53;2.90;;;1.40;;
10442;SDS011;5269;51.146;16.986;2022-07-15T02:55:22;3.22;;;1.80;;
10442;SDS011;5269;51.146;16.986;2022-07-15T02:57:49;3.70;;;1.70;;
10442;SDS011;5269;51.146;16.986;2022-07-15T03:00:16;2.03;;;1.50;;
10442;SDS011;5269;51.146;16.986;2022-07-15T03:02:46;3.88;;;2.10;;
10442;SDS011;5269;51.146;16.986;2022-07-15T03:05:14;3.00;;;1.90;;
10442;SDS011;5269;51.146;16.986;2022-07-15T03:07:42;1.80;;;1.60;;
10442;SDS011;5269;51.146;16.986;2022-07-15T03:10:09;2.20;;;1.75;;
10442;SDS011;5269;51.146;16.986;2022-07-15T03:12:37;3.47;;;1.80;;
10442;SDS011;5269;51.146;16.986;2022-07-15T03:15:04;2.90;;;1.60;;
10442;SDS011;5269;51.146;16.986;2022-07-15T03:17:34;2.95;;;1.60;;
10442;SDS011;5269;51.146;16.986;2022-07-15T03:20:01;1.95;;;1.45;;
10442;SDS011;5269;51.146;16.986;2022-07-15T03:22:28;2.88;;;2.10;;
10442;SDS011;5269;51.146;16.986;2022-07-15T03:24:55;4.30;;;1.58;;
10442;SDS011;5269;51.146;16.986;2022-07-15T03:27:22;4.35;;;1.67;;
10442;SDS011;5269;51.146;16.986;2022-07-15T03:29:49;2.97;;;1.77;;
10442;SDS011;5269;51.146;16.986;2022-07-15T03:32:16;4.03;;;1.77;;
10442;SDS011;5269;51.146;16.986;2022-07-15T03:34:46;2.33;;;1.70;;
10442;SDS011;5269;51.146;16.986;2022-07-15T03:37:13;3.85;;;2.03;;
10442;SDS011;5269;51.146;16.986;2022-07-15T03:39:40;3.58;;;1.63;;
10442;SDS011;5269;51.146;16.986;2022-07-15T03:42:07;5.45;;;1.85;;
10442;SDS011;5269;51.146;16.986;2022-07-15T03:44:34;4.40;;;1.90;;
10442;SDS011;5269;51.146;16.986;2022-07-15T03:47:01;6.93;;;1.90;;
10442;SDS011;5269;51.146;16.986;2022-07-15T03:49:28;4.45;;;1.83;;
10442;SDS011;5269;51.146;16.986;2022-07-15T03:51:57;3.80;;;1.77;;
10442;SDS011;5269;51.146;16.986;2022-07-15T03:54:24;7.70;;;1.58;;
10442;SDS011;5269;51.146;16.986;2022-07-15T03:56:51;3.50;;;1.63;;
10442;SDS011;5269;51.146;16.986;2022-07-15T03:59:18;2.22;;;1.85;;
10442;SDS011;5269;51.146;16.986;2022-07-15T04:01:47;3.67;;;1.67;;
10442;SDS011;5269;51.146;16.986;2022-07-15T04:04:14;3.13;;;1.85;;
10442;SDS011;5269;51.146;16.986;2022-07-15T04:06:42;1.90;;;1.60;;
10442;SDS011;5269;51.146;16.986;2022-07-15T04:09:10;3.50;;;1.73;;
10442;SDS011;5269;51.146;16.986;2022-07-15T04:11:37;3.78;;;1.60;;
10442;SDS011;5269;51.146;16.986;2022-07-15T04:14:07;2.45;;;1.55;;
10442;SDS011;5269;51.146;16.986;2022-07-15T04:16:34;1.50;;;1.40;;
10442;SDS011;5269;51.146;16.986;2022-07-15T04:19:01;2.13;;;1.77;;
10442;SDS011;5269;51.146;16.986;2022-07-15T04:21:29;4.47;;;1.70;;
10442;SDS011;5269;51.146;16.986;2022-07-15T04:23:56;2.20;;;1.60;;
10442;SDS011;5269;51.146;16.986;2022-07-15T04:26:24;2.05;;;1.50;;
10442;SDS011;5269;51.146;16.986;2022-07-15T04:28:52;1.98;;;1.50;;
10442;SDS011;5269;51.146;16.986;2022-07-15T04:31:19;1.52;;;1.40;;
10442;SDS011;5269;51.146;16.986;2022-07-15T04:33:46;4.82;;;1.63;;
10442;SDS011;5269;51.146;16.986;2022-07-15T04:36:13;2.70;;;1.80;;
10442;SDS011;5269;51.146;16.986;2022-07-15T04:38:40;2.35;;;1.33;;
10442;SDS011;5269;51.146;16.986;2022-07-15T04:41:06;2.85;;;1.65;;
10442;SDS011;5269;51.146;16.986;2022-07-15T04:43:35;2.55;;;1.55;;
10442;SDS011;5269;51.146;16.986;2022-07-15T04:46:02;3.70;;;1.50;;
10442;SDS011;5269;51.146;16.986;2022-07-15T04:48:29;1.50;;;1.40;;
10442;SDS011;5269;51.146;16.986;2022-07-15T04:51:13;2.38;;;1.50;;
10442;SDS011;5269;51.146;16.986;2022-07-15T04:53:40;1.75;;;1.58;;
10442;SDS011;5269;51.146;16.986;2022-07-15T04:56:07;1.73;;;1.52;;
10442;SDS011;5269;51.146;16.986;2022-07-15T04:58:35;2.13;;;1.40;;
10442;SDS011;5269;51.146;16.986;2022-07-15T05:01:02;4.07;;;1.50;;
10442;SDS011;5269;51.146;16.986;2022-07-15T05:03:29;1.92;;;1.50;;
10442;SDS011;5269;51.146;16.986;2022-07-15T05:05:56;2.75;;;1.50;;
10442;SDS011;5269;51.146;16.986;2022-07-15T05:08:23;1.77;;;1.33;;
10442;SDS011;5269;51.146;16.986;2022-07-15T05:10:49;3.80;;;1.55;;
10442;SDS011;5269;51.146;16.986;2022-07-15T05:13:16;3.83;;;1.80;;
10442;SDS011;5269;51.146;16.986;2022-07-15T05:15:45;3.25;;;1.60;;
10442;SDS011;5269;51.146;16.986;2022-07-15T05:18:12;2.20;;;1.48;;
10442;SDS011;5269;51.146;16.986;2022-07-15T05:20:38;3.10;;;1.70;;
10442;SDS011;5269;51.146;16.986;2022-07-15T05:23:06;2.83;;;1.63;;
10442;SDS011;5269;51.146;16.986;2022-07-15T05:25:32;2.20;;;1.77;;
10442;SDS011;5269;51.146;16.986;2022-07-15T05:28:00;1.50;;;1.40;;
10442;SDS011;5269;51.146;16.986;2022-07-15T05:30:27;1.50;;;1.40;;
10442;SDS011;5269;51.146;16.986;2022-07-15T05:32:56;1.90;;;1.60;;
10442;SDS011;5269;51.146;16.986;2022-07-15T05:35:23;3.78;;;1.80;;
10442;SDS011;5269;51.146;16.986;2022-07-15T05:37:50;1.50;;;1.40;;
10442;SDS011;5269;51.146;16.986;2022-07-15T05:40:17;1.63;;;1.52;;
10442;SDS011;5269;51.146;16.986;2022-07-15T05:42:43;2.13;;;1.40;;
10442;SDS011;5269;51.146;16.986;2022-07-15T05:45:11;2.00;;;1.40;;
10442;SDS011;5269;51.146;16.986;2022-07-15T05:47:38;3.80;;;1.60;;
10442;SDS011;5269;51.146;16.986;2022-07-15T05:50:13;2.28;;;1.60;;
10442;SDS011;5269;51.146;16.986;2022-07-15T05:52:40;1.88;;;1.50;;
10442;SDS011;5269;51.146;16.986;2022-07-15T05:55:07;3.80;;;1.48;;
10442;SDS011;5269;51.146;16.986;2022-07-15T05:57:34;3.75;;;1.73;;
10442;SDS011;5269;51.146;16.986;2022-07-15T06:00:01;3.53;;;2.10;;
10442;SDS011;5269;51.146;16.986;2022-07-15T06:02:29;2.40;;;1.60;;
10442;SDS011;5269;51.146;16.986;2022-07-15T06:04:56;2.17;;;1.85;;
10442;SDS011;5269;51.146;16.986;2022-07-15T06:07:25;2.22;;;1.80;;
10442;SDS011;5269;51.146;16.986;2022-07-15T06:09:52;2.30;;;1.70;;
10442;SDS011;5269;51.146;16.986;2022-07-15T06:12:19;2.53;;;1.60;;
10442;SDS011;5269;51.146;16.986;2022-07-15T06:14:46;3.88;;;1.95;;
10442;SDS011;5269;51.146;16.986;2022-07-15T06:17:13;2.88;;;1.70;;
10442;SDS011;5269;51.146;16.986;2022-07-15T06:19:40;2.05;;;1.70;;
10442;SDS011;5269;51.146;16.986;2022-07-15T06:22:07;2.63;;;1.67;;
10442;SDS011;5269;51.146;16.986;2022-07-15T06:24:35;1.83;;;1.60;;
10442;SDS011;5269;51.146;16.986;2022-07-15T06:27:03;3.67;;;1.60;;
10442;SDS011;5269;51.146;16.986;2022-07-15T06:29:29;1.83;;;1.73;;
10442;SDS011;5269;51.146;16.986;2022-07-15T06:31:57;3.70;;;1.77;;
10442;SDS011;5269;51.146;16.986;2022-07-15T06:34:24;4.07;;;1.80;;
10442;SDS011;5269;51.146;16.986;2022-07-15T06:36:51;5.65;;;1.80;;
10442;SDS011;5269;51.146;16.986;2022-07-15T06:39:18;2.85;;;1.63;;
10442;SDS011;5269;51.146;16.986;2022-07-15T06:41:46;2.05;;;1.73;;
10442;SDS011;5269;51.146;16.986;2022-07-15T06:44:13;2.47;;;1.55;;
10442;SDS011;5269;51.146;16.986;2022-07-15T06:46:41;4.28;;;2.05;;
10442;SDS011;5269;51.146;16.986;2022-07-15T06:49:08;2.75;;;1.80;;
10442;SDS011;5269;51.146;16.986;2022-07-15T06:51:35;3.22;;;1.83;;
10442;SDS011;5269;51.146;16.986;2022-07-15T06:54:01;3.33;;;1.95;;
10442;SDS011;5269;51.146;16.986;2022-07-15T06:56:29;3.25;;;1.40;;
10442;SDS011;5269;51.146;16.986;2022-07-15T06:58:57;2.90;;;1.98;;
10442;SDS011;5269;51.146;16.986;2022-07-15T07:01:24;3.53;;;2.08;;
10442;SDS011;5269;51.146;16.986;2022-07-15T07:03:51;2.85;;;1.70;;
10442;SDS011;5269;51.146;16.986;2022-07-15T07:06:18;3.33;;;1.77;;
10442;SDS011;5269;51.146;16.986;2022-07-15T07:08:45;4.88;;;1.77;;
10442;SDS011;5269;51.146;16.986;2022-07-15T07:11:13;6.13;;;1.90;;
10442;SDS011;5269;51.146;16.986;2022-07-15T07:13:40;2.83;;;1.90;;
10442;SDS011;5269;51.146;16.986;2022-07-15T07:16:08;3.15;;;2.25;;
10442;SDS011;5269;51.146;16.986;2022-07-15T07:18:35;4.03;;;2.15;;
10442;SDS011;5269;51.146;16.986;2022-07-15T07:21:02;3.78;;;2.05;;
10442;SDS011;5269;51.146;16.986;2022-07-15T07:23:29;3.65;;;2.20;;
10442;SDS011;5269;51.146;16.986;2022-07-15T07:25:56;2.65;;;2.22;;
10442;SDS011;5269;51.146;16.986;2022-07-15T07:28:24;2.60;;;2.10;;
10442;SDS011;5269;51.146;16.986;2022-07-15T07:30:51;2.97;;;2.05;;
10442;SDS011;5269;51.146;16.986;2022-07-15T07:33:21;2.30;;;2.10;;
10442;SDS011;5269;51.146;16.986;2022-07-15T07:35:48;2.83;;;2.30;;
10442;SDS011;5269;51.146;16.986;2022-07-15T07:38:15;2.50;;;2.30;;
10442;SDS011;5269;51.146;16.986;2022-07-15T07:40:42;3.05;;;2.10;;
10442;SDS011;5269;51.146;16.986;2022-07-15T07:43:09;5.18;;;2.28;;
10442;SDS011;5269;51.146;16.986;2022-07-15T07:45:36;2.47;;;2.38;;
10442;SDS011;5269;51.146;16.986;2022-07-15T07:48:03;2.63;;;2.17;;
10442;SDS011;5269;51.146;16.986;2022-07-15T07:50:33;5.22;;;2.20;;
10442;SDS011;5269;51.146;16.986;2022-07-15T07:53:00;4.45;;;2.30;;
10442;SDS011;5269;51.146;16.986;2022-07-15T07:55:27;3.75;;;2.30;;
10442;SDS011;5269;51.146;16.986;2022-07-15T07:57:54;3.30;;;2.20;;
10442;SDS011;5269;51.146;16.986;2022-07-15T08:00:22;4.80;;;2.85;;
10442;SDS011;5269;51.146;16.986;2022-07-15T08:02:52;2.20;;;2.00;;
10442;SDS011;5269;51.146;16.986;2022-07-15T08:05:20;3.38;;;2.08;;
10442;SDS011;5269;51.146;16.986;2022-07-15T08:07:48;2.45;;;2.17;;
10442;SDS011;5269;51.146;16.986;2022-07-15T08:10:16;2.58;;;1.75;;
10442;SDS011;5269;51.146;16.986;2022-07-15T08:12:44;2.47;;;1.88;;
10442;SDS011;5269;51.146;16.986;2022-07-15T08:15:11;3.40;;;2.28;;
10442;SDS011;5269;51.146;16.986;2022-07-15T08:17:40;2.58;;;2.13;;
10442;SDS011;5269;51.146;16.986;2022-07-15T08:20:07;2.88;;;2.25;;
10442;SDS011;5269;51.146;16.986;2022-07-15T08:22:36;1.80;;;1.70;;
10442;SDS011;5269;51.146;16.986;2022-07-15T08:25:05;2.38;;;1.92;;
10442;SDS011;5269;51.146;16.986;2022-07-15T08:27:32;2.17;;;1.98;;
10442;SDS011;5269;51.146;16.986;2022-07-15T08:29:59;1.92;;;1.67;;
10442;SDS011;5269;51.146;16.986;2022-07-15T08:32:26;2.35;;;1.75;;
10442;SDS011;5269;51.146;16.986;2022-07-15T08:34:53;3.70;;;1.75;;
10442;SDS011;5269;51.146;16.986;2022-07-15T08:37:20;2.33;;;1.83;;
10442;SDS011;5269;51.146;16.986;2022-07-15T08:39:46;4.28;;;2.15;;
10442;SDS011;5269;51.146;16.986;2022-07-15T08:42:15;4.20;;;1.70;;
10442;SDS011;5269;51.146;16.986;2022-07-15T08:44:43;2.22;;;1.58;;
10442;SDS011;5269;51.146;16.986;2022-07-15T08:47:11;2.70;;;1.73;;
10442;SDS011;5269;51.146;16.986;2022-07-15T08:49:39;3.10;;;2.20;;
10442;SDS011;5269;51.146;16.986;2022-07-15T08:52:06;4.38;;;2.00;;
10442;SDS011;5269;51.146;16.986;2022-07-15T08:54:33;2.00;;;1.83;;
10442;SDS011;5269;51.146;16.986;2022-07-15T08:57:01;3.05;;;1.77;;
10442;SDS011;5269;51.146;16.986;2022-07-15T08:59:29;3.97;;;2.25;;
10442;SDS011;5269;51.146;16.986;2022-07-15T09:01:56;3.28;;;2.05;;
10442;SDS011;5269;51.146;16.986;2022-07-15T09:04:24;1.98;;;1.83;;
10442;SDS011;5269;51.146;16.986;2022-07-15T09:06:51;4.50;;;1.60;;
10442;SDS011;5269;51.146;16.986;2022-07-15T09:09:21;1.83;;;1.58;;
10442;SDS011;5269;51.146;16.986;2022-07-15T09:11:54;2.33;;;1.70;;
10442;SDS011;5269;51.146;16.986;2022-07-15T09:14:24;3.25;;;1.80;;
10442;SDS011;5269;51.146;16.986;2022-07-15T09:17:05;1.60;;;1.50;;
10442;SDS011;5269;51.146;16.986;2022-07-15T09:19:57;2.20;;;1.73;;
10442;SDS011;5269;51.146;16.986;2022-07-15T09:22:31;2.28;;;1.40;;
10442;SDS011;5269;51.146;16.986;2022-07-15T09:25:04;2.17;;;1.70;;
10442;SDS011;5269;51.146;16.986;2022-07-15T09:27:35;3.85;;;1.50;;
10442;SDS011;5269;51.146;16.986;2022-07-15T09:30:14;2.45;;;1.60;;
10442;SDS011;5269;51.146;16.986;2022-07-15T09:33:02;3.95;;;2.05;;
10442;SDS011;5269;51.146;16.986;2022-07-15T09:35:48;3.58;;;1.63;;
10442;SDS011;5269;51.146;16.986;2022-07-15T09:38:31;1.63;;;1.50;;
10442;SDS011;5269;51.146;16.986;2022-07-15T09:40:59;3.20;;;1.60;;
10442;SDS011;5269;51.146;16.986;2022-07-15T09:43:27;3.78;;;1.60;;
10442;SDS011;5269;51.146;16.986;2022-07-15T09:45:58;2.33;;;1.48;;
10442;SDS011;5269;51.146;16.986;2022-07-15T09:48:27;1.60;;;1.48;;
10442;SDS011;5269;51.146;16.986;2022-07-15T09:50:58;3.42;;;1.48;;
10442;SDS011;5269;51.146;16.986;2022-07-15T09:53:26;1.85;;;1.42;;
10442;SDS011;5269;51.146;16.986;2022-07-15T09:55:54;2.28;;;1.45;;
10442;SDS011;5269;51.146;16.986;2022-07-15T09:58:21;4.90;;;1.50;;
10442;SDS011;5269;51.146;16.986;2022-07-15T10:00:48;1.58;;;1.30;;
10442;SDS011;5269;51.146;16.986;2022-07-15T10:03:17;2.97;;;1.50;;
10442;SDS011;5269;51.146;16.986;2022-07-15T10:05:49;2.20;;;1.63;;
10442;SDS011;5269;51.146;16.986;2022-07-15T10:08:19;3.00;;;1.58;;
10442;SDS011;5269;51.146;16.986;2022-07-15T10:10:46;4.03;;;1.58;;
10442;SDS011;5269;51.146;16.986;2022-07-15T10:13:20;3.60;;;1.70;;
10442;SDS011;5269;51.146;16.986;2022-07-15T10:16:04;1.95;;;1.75;;
10442;SDS011;5269;51.146;16.986;2022-07-15T10:18:44;1.52;;;1.42;;
10442;SDS011;5269;51.146;16.986;2022-07-15T10:21:26;2.75;;;1.75;;
10442;SDS011;5269;51.146;16.986;2022-07-15T10:24:10;1.98;;;1.60;;
10442;SDS011;5269;51.146;16.986;2022-07-15T10:27:05;5.80;;;1.67;;
10442;SDS011;5269;51.146;16.986;2022-07-15T10:29:50;1.70;;;1.40;;
10442;SDS011;5269;51.146;16.986;2022-07-15T10:32:17;2.78;;;1.50;;
10442;SDS011;5269;51.146;16.986;2022-07-15T10:34:44;2.40;;;1.60;;
10442;SDS011;5269;51.146;16.986;2022-07-15T10:37:15;1.92;;;1.52;;
10442;SDS011;5269;51.146;16.986;2022-07-15T10:39:55;3.13;;;1.60;;
10442;SDS011;5269;51.146;16.986;2022-07-15T10:45:26;4.43;;;1.40;;
10442;SDS011;5269;51.146;16.986;2022-07-15T10:50:52;1.60;;;1.33;;
10442;SDS011;5269;51.146;16.986;2022-07-15T10:53:22;2.50;;;1.50;;
10442;SDS011;5269;51.146;16.986;2022-07-15T10:55:50;3.55;;;1.80;;
10442;SDS011;5269;51.146;16.986;2022-07-15T10:58:18;2.28;;;1.60;;
10442;SDS011;5269;51.146;16.986;2022-07-15T11:00:45;3.78;;;1.95;;
10442;SDS011;5269;51.146;16.986;2022-07-15T11:03:14;2.88;;;1.73;;
10442;SDS011;5269;51.146;16.986;2022-07-15T11:17:10;2.90;;;1.90;;
10442;SDS011;5269;51.146;16.986;2022-07-15T11:19:38;3.08;;;1.70;;
10442;SDS011;5269;51.146;16.986;2022-07-15T11:22:08;2.83;;;1.80;;
10442;SDS011;5269;51.146;16.986;2022-07-15T11:24:36;3.60;;;1.75;;
10442;SDS011;5269;51.146;16.986;2022-07-15T11:27:04;5.85;;;2.15;;
10442;SDS011;5269;51.146;16.986;2022-07-15T11:29:41;3.58;;;2.00;;
10442;SDS011;5269;51.146;16.986;2022-07-15T11:32:08;3.60;;;2.00;;
10442;SDS011;5269;51.146;16.986;2022-07-15T11:34:38;2.85;;;1.90;;
10442;SDS011;5269;51.146;16.986;2022-07-15T11:37:05;3.50;;;1.73;;
10442;SDS011;5269;51.146;16.986;2022-07-15T11:39:33;1.77;;;1.35;;
10442;SDS011;5269;51.146;16.986;2022-07-15T11:42:01;4.88;;;1.88;;
10442;SDS011;5269;51.146;16.986;2022-07-15T11:44:46;3.60;;;1.95;;
10442;SDS011;5269;51.146;16.986;2022-07-15T11:47:13;2.92;;;1.60;;
10442;SDS011;5269;51.146;16.986;2022-07-15T11:49:40;3.22;;;1.67;;
10442;SDS011;5269;51.146;16.986;2022-07-15T11:52:09;2.45;;;1.80;;
10442;SDS011;5269;51.146;16.986;2022-07-15T11:54:38;2.78;;;1.75;;
10442;SDS011;5269;51.146;16.986;2022-07-15T11:57:08;1.75;;;1.58;;
10442;SDS011;5269;51.146;16.986;2022-07-15T11:59:37;2.55;;;1.63;;
10442;SDS011;5269;51.146;16.986;2022-07-15T12:02:04;1.75;;;1.60;;
10442;SDS011;5269;51.146;16.986;2022-07-15T12:04:33;2.85;;;1.50;;
10442;SDS011;5269;51.146;16.986;2022-07-15T12:07:00;2.88;;;1.60;;
10442;SDS011;5269;51.146;16.986;2022-07-15T12:09:37;3.10;;;1.75;;
10442;SDS011;5269;51.146;16.986;2022-07-15T12:12:05;4.50;;;1.70;;
10442;SDS011;5269;51.146;16.986;2022-07-15T12:14:33;3.53;;;1.65;;
10442;SDS011;5269;51.146;16.986;2022-07-15T12:17:01;2.42;;;1.63;;
10442;SDS011;5269;51.146;16.986;2022-07-15T12:19:29;3.20;;;1.63;;
10442;SDS011;5269;51.146;16.986;2022-07-15T12:21:59;4.93;;;1.90;;
10442;SDS011;5269;51.146;16.986;2022-07-15T12:24:36;2.97;;;1.80;;
10442;SDS011;5269;51.146;16.986;2022-07-15T12:27:06;2.78;;;1.70;;
10442;SDS011;5269;51.146;16.986;2022-07-15T12:29:34;2.05;;;1.63;;
10442;SDS011;5269;51.146;16.986;2022-07-15T12:32:02;2.28;;;1.40;;
10442;SDS011;5269;51.146;16.986;2022-07-15T12:37:18;2.30;;;1.63;;
10442;SDS011;5269;51.146;16.986;2022-07-15T12:39:59;3.70;;;1.60;;
10442;SDS011;5269;51.146;16.986;2022-07-15T12:42:29;4.88;;;1.70;;
10442;SDS011;5269;51.146;16.986;2022-07-15T12:45:05;2.78;;;1.70;;
10442;SDS011;5269;51.146;16.986;2022-07-15T12:47:37;5.07;;;1.58;;
10442;SDS011;5269;51.146;16.986;2022-07-15T12:50:21;2.00;;;1.45;;
10442;SDS011;5269;51.146;16.986;2022-07-15T12:52:48;3.75;;;1.73;;
10442;SDS011;5269;51.146;16.986;2022-07-15T12:55:16;2.15;;;1.67;;
10442;SDS011;5269;51.146;16.986;2022-07-15T12:57:44;2.88;;;1.63;;
10442;SDS011;5269;51.146;16.986;2022-07-15T13:00:14;2.20;;;1.70;;
10442;SDS011;5269;51.146;16.986;2022-07-15T13:02:58;2.70;;;1.77;;
10442;SDS011;5269;51.146;16.986;2022-07-15T13:05:31;3.45;;;1.50;;
10442;SDS011;5269;51.146;16.986;2022-07-15T13:08:02;3.78;;;2.00;;
10442;SDS011;5269;51.146;16.986;2022-07-15T13:10:30;3.20;;;1.60;;
10442;SDS011;5269;51.146;16.986;2022-07-15T13:12:57;2.58;;;1.60;;
10442;SDS011;5269;51.146;16.986;2022-07-15T13:15:26;2.97;;;1.45;;
10442;SDS011;5269;51.146;16.986;2022-07-15T13:17:53;2.78;;;1.80;;
10442;SDS011;5269;51.146;16.986;2022-07-15T13:20:20;1.90;;;1.80;;
10442;SDS011;5269;51.146;16.986;2022-07-15T13:22:47;3.78;;;1.83;;
10442;SDS011;5269;51.146;16.986;2022-07-15T13:25:15;3.25;;;1.73;;
10442;SDS011;5269;51.146;16.986;2022-07-15T13:27:42;2.22;;;1.38;;
10442;SDS011;5269;51.146;16.986;2022-07-15T13:30:10;4.55;;;1.77;;
10442;SDS011;5269;51.146;16.986;2022-07-15T13:32:40;2.25;;;1.70;;
10442;SDS011;5269;51.146;16.986;2022-07-15T13:35:08;6.15;;;1.63;;
10442;SDS011;5269;51.146;16.986;2022-07-15T13:37:37;3.55;;;1.70;;
10442;SDS011;5269;51.146;16.986;2022-07-15T13:40:05;3.42;;;1.77;;
10442;SDS011;5269;51.146;16.986;2022-07-15T13:42:34;1.88;;;1.77;;
10442;SDS011;5269;51.146;16.986;2022-07-15T13:45:01;2.28;;;1.80;;
10442;SDS011;5269;51.146;16.986;2022-07-15T13:47:28;2.30;;;1.77;;
10442;SDS011;5269;51.146;16.986;2022-07-15T13:49:57;3.13;;;1.88;;
10442;SDS011;5269;51.146;16.986;2022-07-15T13:52:41;3.38;;;1.90;;
10442;SDS011;5269;51.146;16.986;2022-07-15T13:55:08;2.50;;;1.80;;
10442;SDS011;5269;51.146;16.986;2022-07-15T13:57:36;2.30;;;2.10;;
10442;SDS011;5269;51.146;16.986;2022-07-15T14:00:04;3.50;;;1.80;;
10442;SDS011;5269;51.146;16.986;2022-07-15T14:02:32;3.67;;;1.88;;
10442;SDS011;5269;51.146;16.986;2022-07-15T14:05:01;4.05;;;2.22;;
10442;SDS011;5269;51.146;16.986;2022-07-15T14:07:28;3.15;;;1.67;;
10442;SDS011;5269;51.146;16.986;2022-07-15T14:09:55;4.68;;;1.95;;
10442;SDS011;5269;51.146;16.986;2022-07-15T14:12:22;3.25;;;1.70;;
10442;SDS011;5269;51.146;16.986;2022-07-15T14:14:49;2.30;;;1.83;;
10442;SDS011;5269;51.146;16.986;2022-07-15T14:17:16;2.55;;;1.85;;
10442;SDS011;5269;51.146;16.986;2022-07-15T14:19:43;3.67;;;1.70;;
10442;SDS011;5269;51.146;16.986;2022-07-15T14:22:11;2.88;;;1.75;;
10442;SDS011;5269;51.146;16.986;2022-07-15T14:24:39;2.90;;;1.60;;
10442;SDS011;5269;51.146;16.986;2022-07-15T14:27:06;4.93;;;1.70;;
10442;SDS011;5269;51.146;16.986;2022-07-15T14:29:33;1.63;;;1.52;;
10442;SDS011;5269;51.146;16.986;2022-07-15T14:32:00;2.65;;;1.80;;
10442;SDS011;5269;51.146;16.986;2022-07-15T14:34:27;3.00;;;1.63;;
10442;SDS011;5269;51.146;16.986;2022-07-15T14:36:54;2.67;;;1.90;;
10442;SDS011;5269;51.146;16.986;2022-07-15T14:39:22;2.38;;;1.90;;
10442;SDS011;5269;51.146;16.986;2022-07-15T14:41:49;4.03;;;1.88;;
10442;SDS011;5269;51.146;16.986;2022-07-15T14:44:16;3.25;;;1.60;;
10442;SDS011;5269;51.146;16.986;2022-07-15T14:46:43;5.18;;;1.83;;
10442;SDS011;5269;51.146;16.986;2022-07-15T14:49:10;3.78;;;1.85;;
10442;SDS011;5269;51.146;16.986;2022-07-15T14:51:37;3.33;;;1.85;;
10442;SDS011;5269;51.146;16.986;2022-07-15T14:54:04;3.50;;;1.95;;
10442;SDS011;5269;51.146;16.986;2022-07-15T14:56:32;2.13;;;1.90;;
10442;SDS011;5269;51.146;16.986;2022-07-15T14:58:59;2.78;;;1.50;;
10442;SDS011;5269;51.146;16.986;2022-07-15T15:01:25;3.95;;;1.60;;
10442;SDS011;5269;51.146;16.986;2022-07-15T15:03:53;4.53;;;2.10;;
10442;SDS011;5269;51.146;16.986;2022-07-15T15:06:20;3.38;;;2.15;;
10442;SDS011;5269;51.146;16.986;2022-07-15T15:08:47;2.65;;;1.90;;
10442;SDS011;5269;51.146;16.986;2022-07-15T15:11:14;3.38;;;1.88;;
10442;SDS011;5269;51.146;16.986;2022-07-15T15:13:42;3.30;;;1.85;;
10442;SDS011;5269;51.146;16.986;2022-07-15T15:16:09;4.85;;;1.73;;
10442;SDS011;5269;51.146;16.986;2022-07-15T15:18:36;3.28;;;1.67;;